Time;durP1;ratioP1;P1;durP2;ratioP2;P2;SDS_P1;SDS_P2;PMS_P1;PMS_P2;Temp;Humidity;BMP_temperature;BMP_pressure;BME280_temperature;BME280_humidity;BME280_pressure;Samples;Min_cycle;Max_cycle;Signal;HPM_P1;HPM_P2
2022/05/01 00:02:13;;;;;;;0.75;0.75;;;;;;;;;;4937934;28;20495;-89
2022/05/01 00:04:39;;;;;;;0.40;0.40;;;;;;;;;;4940261;28;20431;-89
2022/05/01 00:07:06;;;;;;;1.30;1.20;;;;;;;;;;4938357;28;20070;-89
2022/05/01 00:09:33;;;;;;;0.55;0.52;;;;;;;;;;4940835;28;20051;-89
2022/05/01 00:11:59;;;;;;;0.45;0.45;;;;;;;;;;4949331;28;20030;-89
2022/05/01 00:14:27;;;;;;;12.00;0.90;;;;;;;;;;4937389;28;20498;-89
2022/05/01 00:16:53;;;;;;;0.25;0.25;;;;;;;;;;4936948;28;20475;-86
2022/05/01 00:19:19;;;;;;;2.53;1.15;;;;;;;;;;4944918;28;20215;-85
2022/05/01 00:21:45;;;;;;;0.10;0.10;;;;;;;;;;4944981;28;20031;-93
2022/05/01 00:24:11;;;;;;;0.82;0.30;;;;;;;;;;4944648;28;21047;-91
2022/05/01 00:26:37;;;;;;;1.20;1.13;;;;;;;;;;4938099;28;20040;-91
2022/05/01 00:29:07;;;;;;;0.73;0.73;;;;;;;;;;4944089;28;20159;-91
2022/05/01 00:31:33;;;;;;;0.75;0.75;;;;;;;;;;4952566;28;20038;-89
2022/05/01 00:36:44;;;;;;;0.25;0.20;;;;;;;;;;4942410;28;20673;-84
2022/05/01 00:39:10;;;;;;;0.73;0.68;;;;;;;;;;4939010;28;20078;-83
2022/05/01 00:41:38;;;;;;;0.17;0.17;;;;;;;;;;4938690;28;20039;-85
2022/05/01 00:44:04;;;;;;;0.38;0.38;;;;;;;;;;4940195;28;20031;-84
2022/05/01 00:46:34;;;;;;;0.30;0.30;;;;;;;;;;4958938;28;20074;-91
2022/05/01 00:49:01;;;;;;;0.70;0.70;;;;;;;;;;4944447;28;20173;-87
2022/05/01 00:51:29;;;;;;;0.32;0.30;;;;;;;;;;4945476;28;20066;-90
2022/05/01 00:53:55;;;;;;;1.10;1.00;;;;;;;;;;4949411;28;20520;-92
2022/05/01 00:56:21;;;;;;;0.30;0.30;;;;;;;;;;4949940;28;20039;-92
2022/05/01 00:58:47;;;;;;;2.00;0.70;;;;;;;;;;4959200;28;20031;-89
2022/05/01 01:01:14;;;;;;;1.23;1.17;;;;;;;;;;4949884;28;20294;-89
2022/05/01 01:03:40;;;;;;;0.50;0.50;;;;;;;;;;4943884;28;20031;-91
2022/05/01 01:06:06;;;;;;;0.30;0.30;;;;;;;;;;4946689;28;20137;-89
2022/05/01 01:08:32;;;;;;;0.20;0.20;;;;;;;;;;4945097;28;20041;-86
2022/05/01 01:10:58;;;;;;;0.43;0.43;;;;;;;;;;4944963;29;20495;-85
2022/05/01 01:13:26;;;;;;;1.30;0.52;;;;;;;;;;4944689;28;20134;-85
2022/05/01 01:15:54;;;;;;;0.75;0.57;;;;;;;;;;4942871;29;20086;-86
2022/05/01 01:18:20;;;;;;;1.60;1.23;;;;;;;;;;4942491;29;20035;-86
2022/05/01 01:20:46;;;;;;;0.93;0.93;;;;;;;;;;4944769;28;20046;-87
2022/05/01 01:23:12;;;;;;;0.30;0.30;;;;;;;;;;4951704;28;20047;-86
2022/05/01 01:25:38;;;;;;;0.75;0.75;;;;;;;;;;4946766;28;20034;-87
2022/05/01 01:28:05;;;;;;;0.40;0.40;;;;;;;;;;4946147;28;20105;-87
2022/05/01 01:33:21;;;;;;;5.07;1.73;;;;;;;;;;4938798;29;20054;-82
2022/05/01 01:35:47;;;;;;;;;;;;;;;;;;4941625;28;20035;-82
2022/05/01 01:38:13;;;;;;;0.43;0.43;;;;;;;;;;4941996;29;20420;-81
2022/05/01 01:40:43;;;;;;;0.53;0.53;;;;;;;;;;4937698;28;20043;-82
2022/05/01 01:43:10;;;;;;;0.50;0.50;;;;;;;;;;4940611;28;20404;-82
2022/05/01 01:45:36;;;;;;;0.45;0.45;;;;;;;;;;4942092;28;20059;-83
2022/05/01 01:48:11;;;;;;;0.32;0.32;;;;;;;;;;4945381;28;20046;-84
2022/05/01 01:50:37;;;;;;;0.28;0.28;;;;;;;;;;4937776;28;20047;-83
2022/05/01 01:53:03;;;;;;;0.30;0.30;;;;;;;;;;4943826;28;20051;-83
2022/05/01 01:55:33;;;;;;;0.47;0.47;;;;;;;;;;4936097;28;20039;-84
2022/05/01 01:58:00;;;;;;;0.30;0.30;;;;;;;;;;4951149;28;20065;-84
2022/05/01 02:00:26;;;;;;;0.45;0.45;;;;;;;;;;4945064;28;20035;-84
2022/05/01 02:02:59;;;;;;;1.30;1.20;;;;;;;;;;4946756;28;20105;-84
2022/05/01 02:05:25;;;;;;;0.75;0.38;;;;;;;;;;4944934;28;20725;-84
2022/05/01 02:07:51;;;;;;;2.42;1.45;;;;;;;;;;4939253;28;20598;-84
2022/05/01 02:10:17;;;;;;;0.22;0.22;;;;;;;;;;4950745;28;20062;-84
2022/05/01 02:12:44;;;;;;;0.63;0.63;;;;;;;;;;4946396;28;20616;-83
2022/05/01 02:15:10;;;;;;;0.40;0.40;;;;;;;;;;4948952;28;20526;-82
2022/05/01 02:17:39;;;;;;;0.25;0.25;;;;;;;;;;4944195;28;20861;-82
2022/05/01 02:20:05;;;;;;;0.25;0.25;;;;;;;;;;4938294;29;20031;-82
2022/05/01 02:22:31;;;;;;;3.45;1.50;;;;;;;;;;4945947;29;20039;-84
2022/05/01 02:24:57;;;;;;;0.80;0.80;;;;;;;;;;4948875;28;20506;-82
2022/05/01 02:27:23;;;;;;;0.50;0.50;;;;;;;;;;4947679;28;20042;-82
2022/05/01 02:29:49;;;;;;;0.60;0.60;;;;;;;;;;4943328;29;20027;-83
2022/05/01 02:32:16;;;;;;;0.60;0.60;;;;;;;;;;4945509;28;20042;-83
2022/05/01 02:34:42;;;;;;;0.22;0.22;;;;;;;;;;4945411;28;20058;-84
2022/05/01 02:37:08;;;;;;;0.57;0.57;;;;;;;;;;4941515;29;20044;-83
2022/05/01 02:39:34;;;;;;;0.50;0.50;;;;;;;;;;4945819;28;20766;-81
2022/05/01 02:42:00;;;;;;;0.20;0.20;;;;;;;;;;4945752;29;20035;-81
2022/05/01 02:44:27;;;;;;;0.20;0.20;;;;;;;;;;4956956;28;20031;-80
2022/05/01 02:46:54;;;;;;;3.33;1.00;;;;;;;;;;4943894;28;20031;-80
2022/05/01 02:49:21;;;;;;;0.10;0.10;;;;;;;;;;4947880;28;20274;-80
2022/05/01 02:51:47;;;;;;;0.50;0.50;;;;;;;;;;4950981;28;20141;-80
2022/05/01 02:54:13;;;;;;;1.35;0.45;;;;;;;;;;4947283;28;20038;-80
2022/05/01 02:56:39;;;;;;;0.32;0.32;;;;;;;;;;4945505;28;20031;-80
2022/05/01 02:59:09;;;;;;;0.60;0.60;;;;;;;;;;4943908;28;20038;-80
2022/05/01 03:01:35;;;;;;;0.57;0.57;;;;;;;;;;4945718;28;20094;-80
2022/05/01 03:04:02;;;;;;;0.75;0.75;;;;;;;;;;4944670;29;20033;-85
2022/05/01 03:06:28;;;;;;;4.38;1.85;;;;;;;;;;4940961;29;20109;-85
2022/05/01 03:08:54;;;;;;;0.63;0.63;;;;;;;;;;4947369;28;20039;-84
2022/05/01 03:11:20;;;;;;;1.40;0.60;;;;;;;;;;4943795;28;20031;-84
2022/05/01 03:13:46;;;;;;;1.70;1.17;;;;;;;;;;4950291;28;20282;-83
2022/05/01 03:16:12;;;;;;;0.25;0.25;;;;;;;;;;4942849;28;20046;-83
2022/05/01 03:24:08;;;;;;;0.98;0.50;;;;;;;;;;4949530;28;20046;-84
2022/05/01 03:26:34;;;;;;;0.63;0.40;;;;;;;;;;4941925;29;20047;-84
2022/05/01 03:29:00;;;;;;;0.63;0.57;;;;;;;;;;4944197;28;20042;-87
2022/05/01 03:31:29;;;;;;;0.63;0.63;;;;;;;;;;4941921;29;20047;-78
2022/05/01 03:33:55;;;;;;;0.20;0.20;;;;;;;;;;4937870;28;20035;-78
2022/05/01 03:36:21;;;;;;;1.08;0.75;;;;;;;;;;4936026;28;20024;-79
2022/05/01 03:38:47;;;;;;;0.32;0.20;;;;;;;;;;4943675;29;20134;-76
2022/05/01 03:41:15;;;;;;;1.40;1.23;;;;;;;;;;4945261;28;20125;-77
2022/05/01 03:43:41;;;;;;;0.20;0.20;;;;;;;;;;4950623;28;20733;-77
2022/05/01 03:46:08;;;;;;;0.25;0.25;;;;;;;;;;4943214;28;20039;-77
2022/05/01 03:48:34;;;;;;;1.23;1.15;;;;;;;;;;4948011;28;20467;-77
2022/05/01 03:51:00;;;;;;;1.90;0.70;;;;;;;;;;4949699;28;20043;-77
2022/05/01 03:53:27;;;;;;;0.77;0.53;;;;;;;;;;4961080;28;20043;-77
2022/05/01 03:55:53;;;;;;;0.40;0.40;;;;;;;;;;4941849;29;20621;-79
2022/05/01 03:58:20;;;;;;;0.87;0.87;;;;;;;;;;4944256;28;20046;-78
2022/05/01 04:00:47;;;;;;;0.50;0.50;;;;;;;;;;4942451;29;20035;-78
2022/05/01 04:03:17;;;;;;;0.60;0.60;;;;;;;;;;4936414;28;20114;-77
2022/05/01 04:05:43;;;;;;;1.05;0.40;;;;;;;;;;4940014;28;20027;-77
2022/05/01 04:08:10;;;;;;;2.20;1.53;;;;;;;;;;4954370;28;20537;-76
2022/05/01 04:10:40;;;;;;;0.25;0.25;;;;;;;;;;4947965;28;20415;-76
2022/05/01 04:13:06;;;;;;;0.28;0.28;;;;;;;;;;4943961;28;20043;-76
2022/05/01 04:15:33;;;;;;;0.13;0.13;;;;;;;;;;4936530;28;20031;-77
2022/05/01 04:18:02;;;;;;;0.38;0.38;;;;;;;;;;4946410;28;20079;-77
2022/05/01 04:20:28;;;;;;;0.30;0.30;;;;;;;;;;4942448;28;20126;-76
2022/05/01 04:22:54;;;;;;;0.60;0.60;;;;;;;;;;4945258;28;20042;-77
2022/05/01 04:25:22;;;;;;;1.70;0.33;;;;;;;;;;4942257;28;20035;-77
2022/05/01 04:27:52;;;;;;;1.00;0.95;;;;;;;;;;4948641;28;20150;-77
2022/05/01 04:30:19;;;;;;;0.17;0.17;;;;;;;;;;4942741;28;20038;-77
2022/05/01 04:32:49;;;;;;;0.30;0.30;;;;;;;;;;4942079;28;20078;-77
2022/05/01 04:35:19;;;;;;;0.10;0.10;;;;;;;;;;4949360;28;20090;-78
2022/05/01 04:37:46;;;;;;;0.20;0.20;;;;;;;;;;4941449;29;20039;-77
2022/05/01 04:40:14;;;;;;;0.95;0.95;;;;;;;;;;4953038;28;20038;-77
2022/05/01 04:42:41;;;;;;;0.40;0.40;;;;;;;;;;4944554;28;20030;-77
2022/05/01 04:45:07;;;;;;;0.45;0.35;;;;;;;;;;4944185;28;20106;-76
2022/05/01 04:47:34;;;;;;;0.43;0.43;;;;;;;;;;4942337;28;20130;-77
2022/05/01 04:50:00;;;;;;;0.20;0.20;;;;;;;;;;4943470;29;20613;-76
2022/05/01 04:52:26;;;;;;;0.47;0.47;;;;;;;;;;4940482;28;20043;-76
2022/05/01 04:54:52;;;;;;;0.68;0.68;;;;;;;;;;4946795;28;20772;-76
2022/05/01 04:57:18;;;;;;;0.70;0.70;;;;;;;;;;4942544;28;20039;-77
2022/05/01 04:59:44;;;;;;;0.43;0.43;;;;;;;;;;4942677;28;20059;-78
2022/05/01 05:02:10;;;;;;;0.13;0.13;;;;;;;;;;4939142;29;20033;-75
2022/05/01 05:04:36;;;;;;;0.30;0.30;;;;;;;;;;4940468;28;20035;-76
2022/05/01 05:07:02;;;;;;;1.27;1.17;;;;;;;;;;4941398;29;20186;-77
2022/05/01 05:12:14;;;;;;;0.30;0.30;;;;;;;;;;4934216;28;20235;-77
2022/05/01 05:14:41;;;;;;;0.60;0.60;;;;;;;;;;4943794;29;20027;-76
2022/05/01 05:17:09;;;;;;;0.20;0.20;;;;;;;;;;4941922;28;20051;-76
2022/05/01 05:19:35;;;;;;;0.60;0.60;;;;;;;;;;4944127;28;20031;-76
2022/05/01 05:22:01;;;;;;;1.50;1.40;;;;;;;;;;4948329;28;20196;-77
2022/05/01 05:24:27;;;;;;;0.43;0.43;;;;;;;;;;4948134;28;20027;-77
2022/05/01 05:26:53;;;;;;;0.55;0.55;;;;;;;;;;4946005;28;20111;-77
2022/05/01 05:29:19;;;;;;;2.47;1.00;;;;;;;;;;4945777;28;20122;-78
2022/05/01 05:31:45;;;;;;;0.50;0.45;;;;;;;;;;4943394;29;20500;-77
2022/05/01 05:34:11;;;;;;;0.37;0.37;;;;;;;;;;4945507;28;20041;-78
2022/05/01 05:36:37;;;;;;;0.45;0.45;;;;;;;;;;4950093;28;20041;-79
2022/05/01 05:39:03;;;;;;;0.53;0.53;;;;;;;;;;4951493;28;20050;-79
2022/05/01 05:41:29;;;;;;;0.67;0.60;;;;;;;;;;4946956;28;20038;-79
2022/05/01 05:43:55;;;;;;;1.90;1.02;;;;;;;;;;4950599;28;20294;-79
2022/05/01 05:46:21;;;;;;;0.30;0.30;;;;;;;;;;4948602;28;20066;-78
2022/05/01 05:48:47;;;;;;;0.40;0.40;;;;;;;;;;4946621;28;20220;-78
2022/05/01 05:51:13;;;;;;;0.87;0.87;;;;;;;;;;4947055;28;20039;-78
2022/05/01 05:53:39;;;;;;;0.43;0.43;;;;;;;;;;4947666;28;20039;-78
2022/05/01 05:56:05;;;;;;;1.27;1.17;;;;;;;;;;4941365;28;20850;-80
2022/05/01 05:58:31;;;;;;;0.40;0.40;;;;;;;;;;4939874;29;20039;-78
2022/05/01 06:00:57;;;;;;;0.60;0.60;;;;;;;;;;4939066;29;20035;-79
2022/05/01 06:03:24;;;;;;;0.17;0.17;;;;;;;;;;4945874;28;20031;-79
2022/05/01 06:05:50;;;;;;;0.65;0.63;;;;;;;;;;4942264;29;20035;-78
2022/05/01 06:08:16;;;;;;;1.90;0.73;;;;;;;;;;4939722;28;20120;-80
2022/05/01 06:10:42;;;;;;;0.40;0.40;;;;;;;;;;4939870;29;20131;-79
2022/05/01 06:13:08;;;;;;;2.40;1.00;;;;;;;;;;4943849;28;20855;-79
2022/05/01 06:15:34;;;;;;;1.13;0.30;;;;;;;;;;4949339;28;20042;-79
2022/05/01 06:18:00;;;;;;;0.10;0.10;;;;;;;;;;4948076;28;20047;-79
2022/05/01 06:20:26;;;;;;;0.77;0.77;;;;;;;;;;4944610;28;20042;-79
2022/05/01 06:22:52;;;;;;;0.82;0.82;;;;;;;;;;4953083;28;20904;-80
2022/05/01 06:25:19;;;;;;;2.20;1.20;;;;;;;;;;4953209;28;20031;-80
2022/05/01 06:27:45;;;;;;;0.47;0.47;;;;;;;;;;4951401;28;20039;-80
2022/05/01 06:30:11;;;;;;;0.20;0.20;;;;;;;;;;4949678;28;20038;-90
2022/05/01 06:32:38;;;;;;;0.55;0.55;;;;;;;;;;4946955;28;20070;-90
2022/05/01 06:35:05;;;;;;;0.15;0.15;;;;;;;;;;4947765;28;20042;-90
2022/05/01 06:37:31;;;;;;;;;;;;;;;;;;4952098;28;20019;-91
2022/05/01 06:39:57;;;;;;;0.30;0.30;;;;;;;;;;4950128;28;20369;-93
2022/05/01 06:42:23;;;;;;;0.47;0.47;;;;;;;;;;4959912;28;20038;-93
2022/05/01 06:44:49;;;;;;;8.05;1.17;;;;;;;;;;4952989;28;20055;-88
2022/05/01 06:47:15;;;;;;;0.10;0.10;;;;;;;;;;4951102;28;20430;-87
2022/05/01 06:49:41;;;;;;;0.43;0.38;;;;;;;;;;4951945;28;20024;-91
2022/05/01 06:52:08;;;;;;;0.85;0.30;;;;;;;;;;4952011;28;20443;-90
2022/05/01 06:54:34;;;;;;;3.20;1.40;;;;;;;;;;4953908;28;20121;-90
2022/05/01 06:57:00;;;;;;;0.32;0.32;;;;;;;;;;4953141;28;20142;-89
2022/05/01 06:59:26;;;;;;;0.98;0.60;;;;;;;;;;4948250;28;20058;-89
2022/05/01 07:01:52;;;;;;;0.20;0.20;;;;;;;;;;4952705;28;20035;-91
2022/05/01 07:04:18;;;;;;;0.57;0.57;;;;;;;;;;4951051;28;20051;-90
2022/05/01 07:06:45;;;;;;;1.67;0.73;;;;;;;;;;4947217;28;20490;-90
2022/05/01 07:09:11;;;;;;;4.72;0.47;;;;;;;;;;4954492;28;20034;-90
2022/05/01 07:11:37;;;;;;;0.47;0.40;;;;;;;;;;4945583;28;20050;-89
2022/05/01 07:14:03;;;;;;;0.22;0.20;;;;;;;;;;4944875;29;20370;-87
2022/05/01 07:16:29;;;;;;;0.50;0.38;;;;;;;;;;4947395;28;20035;-90
2022/05/01 07:18:55;;;;;;;0.52;0.38;;;;;;;;;;4950861;28;20050;-91
2022/05/01 07:21:22;;;;;;;1.75;0.55;;;;;;;;;;4950203;29;20035;-89
2022/05/01 07:23:48;;;;;;;0.40;0.30;;;;;;;;;;4946195;28;20043;-90
2022/05/01 07:26:14;;;;;;;0.93;0.60;;;;;;;;;;4946835;29;20038;-91
2022/05/01 07:28:40;;;;;;;0.30;0.30;;;;;;;;;;4949465;28;20428;-92
2022/05/01 07:31:06;;;;;;;0.65;0.50;;;;;;;;;;4958368;28;20027;-81
2022/05/01 07:33:32;;;;;;;0.95;0.60;;;;;;;;;;4951116;28;20027;-81
2022/05/01 07:35:58;;;;;;;0.93;0.40;;;;;;;;;;4943106;28;20558;-81
2022/05/01 07:38:24;;;;;;;0.75;0.50;;;;;;;;;;4947792;28;20035;-80
2022/05/01 07:40:50;;;;;;;0.30;0.17;;;;;;;;;;4944402;28;20035;-82
2022/05/01 07:43:16;;;;;;;0.20;0.20;;;;;;;;;;4946798;28;20078;-80
2022/05/01 07:45:44;;;;;;;0.98;0.35;;;;;;;;;;4948290;28;20102;-81
2022/05/01 07:48:10;;;;;;;1.02;0.32;;;;;;;;;;4949670;28;20050;-77
2022/05/01 07:50:36;;;;;;;0.43;0.43;;;;;;;;;;4945046;29;20057;-79
2022/05/01 07:53:03;;;;;;;0.43;0.30;;;;;;;;;;4949203;28;20127;-81
2022/05/01 07:55:29;;;;;;;1.00;0.20;;;;;;;;;;4944826;28;20031;-80
2022/05/01 07:57:55;;;;;;;0.32;0.32;;;;;;;;;;4948908;28;20034;-79
2022/05/01 08:00:21;;;;;;;0.40;0.40;;;;;;;;;;4945675;28;20039;-80
2022/05/01 08:05:32;;;;;;;1.20;0.30;;;;;;;;;;4949178;28;20130;-80
2022/05/01 08:07:58;;;;;;;0.43;0.40;;;;;;;;;;4950766;28;20043;-78
2022/05/01 08:10:24;;;;;;;0.30;0.30;;;;;;;;;;4949926;28;20043;-77
2022/05/01 08:12:51;;;;;;;4.00;0.77;;;;;;;;;;4942991;28;20166;-81
2022/05/01 08:15:17;;;;;;;3.95;0.77;;;;;;;;;;4943659;28;20635;-80
2022/05/01 08:17:44;;;;;;;1.95;0.80;;;;;;;;;;4942944;28;20499;-79
2022/05/01 08:23:01;;;;;;;1.15;0.50;;;;;;;;;;4946046;28;20046;-79
2022/05/01 08:25:27;;;;;;;0.28;0.28;;;;;;;;;;4941180;28;20489;-79
2022/05/01 08:27:53;;;;;;;0.40;0.40;;;;;;;;;;4942021;28;20757;-79
2022/05/01 08:30:19;;;;;;;0.20;0.20;;;;;;;;;;4943032;28;20027;-82
2022/05/01 08:32:45;;;;;;;2.08;0.50;;;;;;;;;;4943029;28;20031;-82
2022/05/01 08:35:12;;;;;;;1.45;0.38;;;;;;;;;;4942311;28;20069;-81
2022/05/01 08:37:39;;;;;;;1.00;0.68;;;;;;;;;;4941657;28;20035;-82
2022/05/01 08:40:06;;;;;;;0.20;0.20;;;;;;;;;;4941724;28;20170;-83
2022/05/01 08:42:35;;;;;;;0.57;0.50;;;;;;;;;;4946067;28;20053;-82
2022/05/01 08:45:02;;;;;;;0.10;0.10;;;;;;;;;;4939101;28;20027;-84
2022/05/01 08:47:35;;;;;;;0.38;0.30;;;;;;;;;;4949092;28;20133;-93
2022/05/01 08:50:02;;;;;;;0.93;0.75;;;;;;;;;;4945639;28;20119;-85
2022/05/01 08:52:29;;;;;;;1.55;0.30;;;;;;;;;;4947121;28;20098;-81
2022/05/01 08:54:56;;;;;;;0.10;0.10;;;;;;;;;;4944873;28;20396;-82
2022/05/01 08:57:23;;;;;;;0.20;0.20;;;;;;;;;;4955478;28;20043;-85
2022/05/01 08:59:49;;;;;;;;;;;;;;;;;;4951339;28;20035;-86
2022/05/01 09:02:15;;;;;;;0.20;0.20;;;;;;;;;;4949395;28;19914;-83
2022/05/01 09:04:41;;;;;;;2.15;0.95;;;;;;;;;;4951313;28;20037;-86
2022/05/01 09:07:07;;;;;;;1.60;0.47;;;;;;;;;;4953397;28;20047;-88
2022/05/01 09:09:33;;;;;;;6.90;0.30;;;;;;;;;;4953036;28;20392;-85
2022/05/01 09:14:44;;;;;;;1.52;0.95;;;;;;;;;;4945076;28;20386;-91
2022/05/01 09:17:17;;;;;;;1.35;0.63;;;;;;;;;;4954565;28;20035;-94
2022/05/01 09:19:44;;;;;;;0.45;0.35;;;;;;;;;;4956759;28;20023;-90
2022/05/01 09:22:11;;;;;;;0.55;0.55;;;;;;;;;;4951029;28;20039;-81
2022/05/01 09:24:37;;;;;;;0.10;0.10;;;;;;;;;;4953121;28;20106;-89
2022/05/01 09:27:03;;;;;;;0.20;0.17;;;;;;;;;;4949951;28;20053;-86
2022/05/01 09:29:32;;;;;;;;;;;;;;;;;;4952707;28;20415;-92
2022/05/01 09:32:00;;;;;;;0.00;0.00;;;;;;;;;;4950707;28;19936;-79
2022/05/01 09:34:28;;;;;;;0.20;0.20;;;;;;;;;;4944672;28;20034;-83
2022/05/01 09:36:55;;;;;;;0.40;0.40;;;;;;;;;;4946875;28;20024;-79
2022/05/01 09:39:23;;;;;;;0.15;0.15;;;;;;;;;;4948699;28;20031;-79
2022/05/01 09:41:50;;;;;;;0.17;0.17;;;;;;;;;;4948281;28;20840;-78
2022/05/01 09:44:16;;;;;;;0.52;0.50;;;;;;;;;;4948620;28;20125;-79
2022/05/01 09:46:46;;;;;;;1.75;0.60;;;;;;;;;;4950446;28;20121;-81
2022/05/01 09:49:15;;;;;;;7.28;1.58;;;;;;;;;;4949654;28;20090;-79
2022/05/01 09:51:49;;;;;;;0.70;0.63;;;;;;;;;;4949251;28;20151;-79
2022/05/01 09:54:18;;;;;;;0.30;0.30;;;;;;;;;;4949240;28;20039;-79
2022/05/01 09:56:54;;;;;;;0.25;0.25;;;;;;;;;;4947795;28;20038;-79
2022/05/01 09:59:21;;;;;;;0.20;0.20;;;;;;;;;;4947656;28;20031;-77
2022/05/01 10:02:02;;;;;;;0.22;0.20;;;;;;;;;;4950633;28;20086;-78
2022/05/01 10:04:29;;;;;;;0.57;0.35;;;;;;;;;;4950408;28;20118;-79
2022/05/01 10:06:56;;;;;;;0.17;0.17;;;;;;;;;;4947596;28;20046;-80
2022/05/01 10:09:26;;;;;;;1.25;0.65;;;;;;;;;;4947692;28;20035;-79
2022/05/01 10:11:54;;;;;;;0.32;0.30;;;;;;;;;;4944337;28;20495;-78
2022/05/01 10:14:23;;;;;;;1.08;0.75;;;;;;;;;;4946003;28;20035;-78
2022/05/01 10:16:50;;;;;;;0.10;0.10;;;;;;;;;;4943938;28;20023;-80
2022/05/01 10:19:19;;;;;;;0.10;0.10;;;;;;;;;;4940216;29;20406;-80
2022/05/01 10:21:49;;;;;;;0.20;0.20;;;;;;;;;;4944434;28;20046;-80
2022/05/01 10:24:15;;;;;;;0.45;0.15;;;;;;;;;;4938614;28;20034;-80
2022/05/01 10:27:05;;;;;;;0.43;0.43;;;;;;;;;;4936375;29;20040;-80
2022/05/01 10:32:48;;;;;;;1.45;0.50;;;;;;;;;;4787803;29;20062;-80
2022/05/01 10:35:45;;;;;;;0.20;0.20;;;;;;;;;;4787559;29;20042;-78
2022/05/01 10:38:11;;;;;;;0.20;0.20;;;;;;;;;;4740130;30;20090;-81
2022/05/01 10:40:41;;;;;;;0.52;0.40;;;;;;;;;;4733419;30;20044;-80
2022/05/01 10:43:24;;;;;;;0.20;0.20;;;;;;;;;;4733478;30;20066;-79
2022/05/01 10:45:50;;;;;;;0.20;0.20;;;;;;;;;;4736591;30;20424;-79
2022/05/01 10:48:28;;;;;;;0.63;0.52;;;;;;;;;;4737227;30;20052;-80
2022/05/01 10:50:54;;;;;;;0.40;0.30;;;;;;;;;;4741082;30;20056;-80
2022/05/01 10:53:20;;;;;;;0.10;0.10;;;;;;;;;;4739829;30;20992;-82
2022/05/01 10:55:49;;;;;;;0.32;0.32;;;;;;;;;;4740685;30;20048;-79
2022/05/01 10:58:27;;;;;;;0.20;0.20;;;;;;;;;;4736813;30;20036;-79
2022/05/01 11:00:57;;;;;;;0.10;0.10;;;;;;;;;;4736524;30;20061;-79
2022/05/01 11:03:24;;;;;;;0.30;0.30;;;;;;;;;;4733315;30;20671;-79
2022/05/01 11:05:55;;;;;;;0.65;0.40;;;;;;;;;;4744641;29;20036;-79
2022/05/01 11:08:23;;;;;;;0.20;0.20;;;;;;;;;;4814087;29;20081;-79
2022/05/01 11:10:50;;;;;;;0.15;0.15;;;;;;;;;;4845993;29;20578;-79
2022/05/01 11:13:17;;;;;;;0.32;0.32;;;;;;;;;;4838654;29;20046;-79
2022/05/01 11:15:49;;;;;;;0.40;0.40;;;;;;;;;;4935161;28;20139;-79
2022/05/01 11:18:15;;;;;;;1.08;0.98;;;;;;;;;;4936419;28;20035;-79
2022/05/01 11:20:43;;;;;;;0.43;0.30;;;;;;;;;;4937181;28;20027;-79
2022/05/01 11:23:31;;;;;;;0.00;0.00;;;;;;;;;;4936766;28;20047;-79
2022/05/01 11:26:30;;;;;;;0.73;0.30;;;;;;;;;;4937039;28;20794;-78
2022/05/01 11:29:17;;;;;;;0.22;0.22;;;;;;;;;;4901540;29;20820;-79
2022/05/01 11:31:44;;;;;;;0.50;0.47;;;;;;;;;;4913864;29;20047;-79
2022/05/01 11:34:16;;;;;;;0.43;0.43;;;;;;;;;;4913190;29;20048;-79
2022/05/01 11:37:01;;;;;;;0.43;0.43;;;;;;;;;;4913494;29;20536;-79
2022/05/01 11:39:46;;;;;;;2.53;1.13;;;;;;;;;;4912810;29;20048;-78
2022/05/01 11:42:25;;;;;;;0.17;0.17;;;;;;;;;;4907771;29;20055;-79
2022/05/01 11:44:52;;;;;;;0.25;0.25;;;;;;;;;;4905850;29;20250;-80
2022/05/01 11:47:21;;;;;;;0.20;0.20;;;;;;;;;;4909529;29;20055;-79
2022/05/01 11:49:47;;;;;;;2.72;1.08;;;;;;;;;;4912167;29;20039;-79
2022/05/01 11:52:15;;;;;;;0.20;0.20;;;;;;;;;;4909790;29;20047;-79
2022/05/01 11:54:41;;;;;;;0.00;0.00;;;;;;;;;;4911455;29;20106;-79
2022/05/01 12:02:40;;;;;;;0.20;0.20;;;;;;;;;;4914055;29;20099;-79
2022/05/01 12:05:06;;;;;;;0.73;0.73;;;;;;;;;;4929814;28;20314;-79
2022/05/01 12:07:33;;;;;;;0.00;0.00;;;;;;;;;;4932270;28;20062;-80
2022/05/01 12:09:59;;;;;;;0.20;0.20;;;;;;;;;;4938726;28;20134;-79
2022/05/01 12:12:29;;;;;;;0.22;0.22;;;;;;;;;;4939528;28;20042;-79
2022/05/01 12:14:55;;;;;;;0.65;0.65;;;;;;;;;;4936549;28;20027;-79
2022/05/01 12:17:21;;;;;;;0.45;0.40;;;;;;;;;;4944086;28;20046;-79
2022/05/01 12:19:49;;;;;;;0.20;0.20;;;;;;;;;;4940657;29;20873;-80
2022/05/01 12:22:20;;;;;;;0.82;0.50;;;;;;;;;;4936749;28;20133;-79
2022/05/01 12:24:47;;;;;;;0.10;0.10;;;;;;;;;;4940053;28;20033;-79
2022/05/01 12:27:14;;;;;;;0.63;0.28;;;;;;;;;;4937879;28;20468;-78
2022/05/01 12:29:47;;;;;;;0.38;0.22;;;;;;;;;;4934333;28;20094;-82
2022/05/01 12:32:14;;;;;;;0.35;0.35;;;;;;;;;;4935463;28;20510;-81
2022/05/01 12:34:52;;;;;;;0.30;0.30;;;;;;;;;;4936756;28;20027;-82
2022/05/01 12:37:22;;;;;;;0.10;0.10;;;;;;;;;;4937182;29;20054;-82
2022/05/01 12:40:09;;;;;;;0.20;0.20;;;;;;;;;;4934473;28;20031;-82
2022/05/01 12:45:36;;;;;;;0.25;0.25;;;;;;;;;;4936109;29;20078;-82
2022/05/01 12:48:03;;;;;;;0.32;0.32;;;;;;;;;;4940082;28;20464;-81
2022/05/01 12:50:31;;;;;;;0.30;0.30;;;;;;;;;;4936213;28;20043;-82
2022/05/01 12:53:01;;;;;;;0.10;0.10;;;;;;;;;;4937190;29;20031;-82
2022/05/01 12:55:30;;;;;;;1.17;0.75;;;;;;;;;;4938074;28;20042;-82
2022/05/01 12:57:57;;;;;;;0.30;0.30;;;;;;;;;;4936756;28;20042;-82
2022/05/01 13:00:40;;;;;;;1.23;0.52;;;;;;;;;;4937118;29;20094;-84
2022/05/01 13:03:28;;;;;;;0.15;0.15;;;;;;;;;;4936790;29;20118;-88
2022/05/01 13:05:59;;;;;;;0.90;0.70;;;;;;;;;;4936026;29;20526;-90
2022/05/01 13:08:26;;;;;;;0.63;0.30;;;;;;;;;;4936038;28;20058;-90
2022/05/01 13:11:11;;;;;;;1.60;0.20;;;;;;;;;;4937584;28;20035;-89
2022/05/01 13:13:49;;;;;;;1.65;0.70;;;;;;;;;;4939155;28;20042;-87
2022/05/01 13:16:16;;;;;;;0.13;0.13;;;;;;;;;;4937857;29;20042;-88
2022/05/01 13:18:43;;;;;;;0.22;0.20;;;;;;;;;;4935246;28;20039;-88
2022/05/01 13:21:10;;;;;;;0.05;0.05;;;;;;;;;;4951330;28;20384;-87
2022/05/01 13:23:36;;;;;;;0.20;0.15;;;;;;;;;;4936456;28;20035;-87
2022/05/01 13:26:02;;;;;;;0.38;0.38;;;;;;;;;;4937010;28;20035;-87
2022/05/01 13:28:29;;;;;;;0.00;0.00;;;;;;;;;;4937004;29;20837;-87
2022/05/01 13:30:56;;;;;;;0.30;0.30;;;;;;;;;;4939890;28;20027;-83
2022/05/01 13:33:22;;;;;;;0.10;0.10;;;;;;;;;;4936662;28;20035;-84
2022/05/01 13:35:49;;;;;;;0.05;0.05;;;;;;;;;;4935691;29;20023;-84
2022/05/01 13:38:15;;;;;;;4.35;0.85;;;;;;;;;;4936524;29;20023;-84
2022/05/01 13:46:10;;;;;;;0.20;0.20;;;;;;;;;;4938285;29;20089;-84
2022/05/01 13:48:36;;;;;;;0.15;0.15;;;;;;;;;;4937848;28;20134;-84
2022/05/01 13:51:03;;;;;;;0.40;0.35;;;;;;;;;;4939032;29;20131;-83
2022/05/01 13:53:29;;;;;;;0.05;0.05;;;;;;;;;;4938143;28;20039;-82
2022/05/01 13:55:55;;;;;;;0.00;0.00;;;;;;;;;;4935804;28;20760;-83
2022/05/01 13:58:21;;;;;;;1.50;0.30;;;;;;;;;;4939132;28;20598;-84
2022/05/01 14:00:47;;;;;;;0.10;0.10;;;;;;;;;;4937978;28;20037;-83
2022/05/01 14:03:13;;;;;;;0.20;0.20;;;;;;;;;;4937645;28;20605;-84
2022/05/01 14:05:39;;;;;;;0.08;0.08;;;;;;;;;;4937601;28;20110;-83
2022/05/01 14:08:07;;;;;;;0.03;0.03;;;;;;;;;;4953405;28;20565;-84
2022/05/01 14:10:34;;;;;;;7.78;1.58;;;;;;;;;;4938941;28;20035;-85
2022/05/01 14:13:00;;;;;;;;;;;;;;;;;;4937808;29;20046;-89
2022/05/01 14:15:26;;;;;;;0.17;0.17;;;;;;;;;;4939113;28;19914;-84
2022/05/01 14:17:53;;;;;;;0.15;0.15;;;;;;;;;;4938609;28;20086;-83
2022/05/01 14:20:19;;;;;;;0.10;0.10;;;;;;;;;;4939860;29;20500;-84
2022/05/01 14:22:46;;;;;;;0.00;0.00;;;;;;;;;;4941220;28;20133;-84
2022/05/01 14:25:14;;;;;;;0.00;0.00;;;;;;;;;;4939280;28;20066;-84
2022/05/01 14:27:40;;;;;;;0.85;0.63;;;;;;;;;;4942148;29;20039;-86
2022/05/01 14:30:07;;;;;;;1.10;0.88;;;;;;;;;;4939218;29;20041;-85
2022/05/01 14:32:39;;;;;;;0.22;0.22;;;;;;;;;;4939298;28;20042;-88
2022/05/01 14:35:07;;;;;;;0.90;0.75;;;;;;;;;;4938718;28;21517;-85
2022/05/01 14:37:45;;;;;;;0.20;0.20;;;;;;;;;;4937887;29;20063;-85
2022/05/01 14:40:14;;;;;;;0.20;0.05;;;;;;;;;;4935161;29;20507;-86
2022/05/01 14:42:43;;;;;;;1.70;1.60;;;;;;;;;;4937040;28;20500;-86
2022/05/01 14:45:12;;;;;;;0.22;0.22;;;;;;;;;;4939339;28;20063;-84
2022/05/01 14:47:44;;;;;;;0.38;0.32;;;;;;;;;;4939203;28;20043;-87
2022/05/01 14:50:11;;;;;;;0.25;0.20;;;;;;;;;;4942519;28;20105;-87
2022/05/01 14:52:38;;;;;;;3.03;0.40;;;;;;;;;;4940091;28;20035;-87
2022/05/01 14:55:07;;;;;;;0.13;0.13;;;;;;;;;;4939241;28;20031;-87
2022/05/01 14:57:34;;;;;;;0.15;0.15;;;;;;;;;;4941915;28;20163;-87
2022/05/01 15:08:18;;;;;;;0.03;0.03;;;;;;;;;;4940272;28;20062;-87
2022/05/01 15:10:45;;;;;;;0.10;0.10;;;;;;;;;;4942196;28;20043;-87
2022/05/01 15:13:12;;;;;;;0.20;0.20;;;;;;;;;;4939501;28;20268;-87
2022/05/01 15:15:47;;;;;;;0.00;0.00;;;;;;;;;;4943884;28;20027;-87
2022/05/01 15:18:16;;;;;;;1.08;0.85;;;;;;;;;;4938337;29;20181;-86
2022/05/01 15:20:48;;;;;;;0.88;0.40;;;;;;;;;;4939057;28;20031;-85
2022/05/01 15:23:18;;;;;;;0.45;0.32;;;;;;;;;;4940900;28;20546;-84
2022/05/01 15:25:50;;;;;;;0.10;0.10;;;;;;;;;;4936699;28;21284;-87
2022/05/01 15:28:19;;;;;;;0.30;0.20;;;;;;;;;;4937966;28;20523;-86
2022/05/01 15:30:48;;;;;;;0.13;0.13;;;;;;;;;;4939025;28;20035;-87
2022/05/01 15:35:50;;;;;;;0.10;0.10;;;;;;;;;;4938247;28;20039;-87
2022/05/01 15:38:22;;;;;;;0.22;0.20;;;;;;;;;;4937074;28;20023;-88
2022/05/01 15:40:48;;;;;;;0.00;0.00;;;;;;;;;;4940291;29;20039;-88